createdAt,value
2019-06-26T00:00:03.248Z,43.85
2019-06-26T00:01:37.601Z,40.67
2019-06-26T00:03:12.611Z,37.23
2019-06-26T00:04:47.004Z,38.88
2019-06-26T00:06:21.938Z,45.55
2019-06-26T00:07:56.281Z,46.28
2019-06-26T00:09:31.731Z,41.80
2019-06-26T00:11:06.100Z,41.55
2019-06-26T00:12:41.031Z,53.48
2019-06-26T00:14:15.452Z,44.58
2019-06-26T00:15:50.422Z,44.00
2019-06-26T00:17:24.781Z,40.58
2019-06-26T00:18:59.714Z,41.50
2019-06-26T00:20:34.056Z,34.38
2019-06-26T00:22:09.030Z,31.55
2019-06-26T00:23:43.377Z,36.03
2019-06-26T00:25:18.385Z,37.83
2019-06-26T00:26:52.768Z,41.92
2019-06-26T00:28:27.702Z,42.40
2019-06-26T00:30:02.064Z,34.85
2019-06-26T00:31:37.010Z,37.80
2019-06-26T00:33:11.390Z,36.60
2019-06-26T00:34:46.300Z,48.33
2019-06-26T00:36:20.780Z,44.48
2019-06-26T00:37:55.760Z,38.25
2019-06-26T00:39:30.162Z,39.63
2019-06-26T00:41:05.498Z,42.20
2019-06-26T00:42:39.946Z,41.77
2019-06-26T00:44:15.029Z,37.63
2019-06-26T00:45:49.401Z,39.33
2019-06-26T00:47:24.348Z,37.10
2019-06-26T00:48:58.674Z,42.60
2019-06-26T00:50:33.609Z,55.43
2019-06-26T00:52:07.958Z,56.35
2019-06-26T00:53:42.982Z,54.33
2019-06-26T00:55:17.332Z,51.50
2019-06-26T00:56:52.650Z,55.50
2019-06-26T00:58:27.033Z,61.35
2019-06-26T01:00:03.065Z,64.97
2019-06-26T01:01:38.034Z,60.43
2019-06-26T01:03:12.381Z,54.10
2019-06-26T01:04:48.409Z,46.68
2019-06-26T01:06:40.511Z,67.58
2019-06-26T01:08:14.848Z,49.73
2019-06-26T01:09:49.771Z,50.73
2019-06-26T01:11:24.120Z,63.20
2019-06-26T01:12:59.141Z,66.95
2019-06-26T01:14:33.485Z,62.60
2019-06-26T01:16:08.422Z,67.87
2019-06-26T01:17:42.829Z,61.65
2019-06-26T01:19:17.804Z,61.83
2019-06-26T01:20:52.132Z,48.05
2019-06-26T01:22:27.121Z,51.00
2019-06-26T01:24:01.450Z,50.88
2019-06-26T01:25:36.412Z,48.25
2019-06-26T01:27:10.751Z,47.50
2019-06-26T01:28:46.177Z,48.40
2019-06-26T01:30:20.849Z,60.52
2019-06-26T01:31:55.856Z,54.27
2019-06-26T01:33:30.209Z,41.30
2019-06-26T01:35:09.078Z,47.95
2019-06-26T01:36:43.416Z,54.60
2019-06-26T01:38:18.408Z,47.30
2019-06-26T01:39:52.752Z,47.78
2019-06-26T01:41:27.717Z,45.85
2019-06-26T01:43:02.136Z,47.85
2019-06-26T01:44:37.581Z,42.85
2019-06-26T01:46:11.931Z,39.80
2019-06-26T01:47:46.900Z,40.67
2019-06-26T01:49:21.236Z,44.42
2019-06-26T01:50:56.158Z,46.90
2019-06-26T01:52:30.508Z,45.92
2019-06-26T02:01:23.215Z,46.02
2019-06-26T02:02:58.146Z,47.13
2019-06-26T02:04:32.484Z,49.75
2019-06-26T02:06:07.424Z,67.85
2019-06-26T02:07:41.787Z,61.68
2019-06-26T02:09:16.730Z,55.05
2019-06-26T02:10:51.308Z,57.27
2019-06-26T02:12:26.374Z,56.88
2019-06-26T02:14:00.718Z,55.38
2019-06-26T02:15:35.669Z,65.30
2019-06-26T02:17:10.067Z,58.95
2019-06-26T02:18:46.048Z,51.23
2019-06-26T02:20:21.011Z,56.85
2019-06-26T02:21:55.870Z,61.35
2019-06-26T02:23:30.759Z,65.15
2019-06-26T02:25:06.221Z,57.00
2019-06-26T02:26:41.222Z,55.20
2019-06-26T02:28:15.530Z,50.58
2019-06-26T02:29:50.753Z,54.00
2019-06-26T02:31:25.095Z,57.73
2019-06-26T02:33:00.055Z,51.30
2019-06-26T02:34:34.397Z,46.08
2019-06-26T02:36:09.330Z,39.85
2019-06-26T02:37:43.678Z,42.05
2019-06-26T02:39:18.625Z,38.90
2019-06-26T02:40:53.070Z,34.98
2019-06-26T02:42:28.003Z,45.38
2019-06-26T02:44:02.427Z,43.68
2019-06-26T02:45:37.796Z,38.90
2019-06-26T02:47:19.368Z,31.65
2019-06-26T02:48:48.786Z,41.05
2019-06-26T02:50:23.136Z,33.45
2019-06-26T02:51:58.089Z,33.42
2019-06-26T02:53:32.447Z,35.30
2019-06-26T02:55:10.646Z,37.85
2019-06-26T02:56:44.997Z,43.30
2019-06-26T02:58:19.996Z,46.65
2019-06-26T02:59:54.318Z,42.93
2019-06-26T03:01:29.553Z,42.48
2019-06-26T03:03:03.896Z,40.78
2019-06-26T03:04:38.868Z,43.98
2019-06-26T03:06:13.285Z,42.93
2019-06-26T03:07:48.218Z,41.77
2019-06-26T03:21:24.751Z,44.73
2019-06-26T03:23:00.640Z,43.05
2019-06-26T03:24:34.994Z,43.20
2019-06-26T03:26:09.922Z,42.10
2019-06-26T03:27:44.300Z,45.23
2019-06-26T03:29:19.232Z,42.40
2019-06-26T03:30:53.582Z,37.25
2019-06-26T03:32:29.124Z,39.40
2019-06-26T03:34:04.677Z,34.70
2019-06-26T03:35:40.854Z,35.38
2019-06-26T03:37:15.421Z,32.48
2019-06-26T03:38:50.332Z,34.10
2019-06-26T03:40:24.789Z,35.90
2019-06-26T03:41:59.812Z,31.33
2019-06-26T03:43:35.566Z,32.23
2019-06-26T03:45:24.689Z,27.90
2019-06-26T03:46:47.143Z,26.12
2019-06-26T03:48:22.093Z,27.50
2019-06-26T03:49:56.424Z,25.80
2019-06-26T03:51:31.356Z,28.38
2019-06-26T03:53:05.826Z,26.93
2019-06-26T03:54:40.865Z,24.47
2019-06-26T03:56:15.214Z,22.93
2019-06-26T03:57:50.158Z,20.75
2019-06-26T03:59:24.603Z,22.07
2019-06-26T04:00:59.680Z,23.38
2019-06-26T04:02:34.084Z,19.40
2019-06-26T04:04:09.022Z,23.42
2019-06-26T04:05:43.378Z,17.40
2019-06-26T04:07:18.300Z,20.72
2019-06-26T04:08:52.690Z,22.62
2019-06-26T04:10:27.653Z,32.15
2019-06-26T04:12:02.040Z,28.60
2019-06-26T04:13:36.944Z,31.70
2019-06-26T04:15:11.435Z,27.95
2019-06-26T04:16:46.332Z,27.00
2019-06-26T04:18:21.092Z,31.97
2019-06-26T04:19:56.058Z,29.63
2019-06-26T04:21:30.400Z,29.72
2019-06-26T04:23:05.325Z,25.60
2019-06-26T04:24:39.734Z,23.02
2019-06-26T04:26:14.672Z,23.90
2019-06-26T04:27:49.123Z,21.80
2019-06-26T04:29:24.082Z,26.70
2019-06-26T04:30:58.473Z,26.10
2019-06-26T04:32:33.404Z,19.70
2019-06-26T04:34:07.756Z,17.20
2019-06-26T04:35:42.797Z,14.05
2019-06-26T04:37:17.148Z,19.70
2019-06-26T04:38:52.119Z,19.10
2019-06-26T04:40:26.466Z,22.13
2019-06-26T04:42:01.427Z,26.73
2019-06-26T04:43:35.739Z,19.80
2019-06-26T04:45:11.004Z,18.32
2019-06-26T04:46:45.394Z,19.50
2019-06-26T04:48:20.499Z,17.45
2019-06-26T04:49:55.263Z,15.93
2019-06-26T04:51:30.219Z,21.48
2019-06-26T04:53:04.563Z,19.40
2019-06-26T04:54:39.568Z,20.35
2019-06-26T04:56:13.931Z,20.85
2019-06-26T04:57:48.941Z,21.90
2019-06-26T04:59:23.292Z,18.60
2019-06-26T05:00:58.265Z,20.82
2019-06-26T05:02:32.690Z,17.87
2019-06-26T05:04:07.620Z,21.02
2019-06-26T05:05:44.412Z,18.75
2019-06-26T05:07:19.048Z,19.42
2019-06-26T05:08:53.393Z,16.70
2019-06-26T05:10:28.332Z,15.98
2019-06-26T05:12:02.810Z,11.70
2019-06-26T05:13:37.741Z,12.47
2019-06-26T05:15:12.619Z,12.03
2019-06-26T05:16:47.561Z,14.03
2019-06-26T05:18:21.883Z,12.50
2019-06-26T05:19:56.808Z,12.80
2019-06-26T05:21:31.183Z,12.33
2019-06-26T05:23:06.116Z,16.02
2019-06-26T05:24:40.495Z,14.45
2019-06-26T05:26:16.345Z,10.32
2019-06-26T05:27:50.671Z,10.95
2019-06-26T05:29:26.393Z,12.47
2019-06-26T05:31:00.796Z,13.45
2019-06-26T05:32:35.726Z,19.37
2019-06-26T05:34:11.148Z,18.55
2019-06-26T05:35:46.292Z,17.77
2019-06-26T05:37:21.937Z,14.05
2019-06-26T05:38:56.871Z,12.68
2019-06-26T05:40:31.217Z,13.48
2019-06-26T05:42:06.898Z,12.75
2019-06-26T05:43:41.594Z,13.62
2019-06-26T05:45:17.024Z,13.22
2019-06-26T05:46:51.423Z,14.75
2019-06-26T05:48:26.766Z,12.95
2019-06-26T06:24:29.037Z,13.00
2019-06-26T06:26:03.962Z,10.58
2019-06-26T06:27:38.306Z,11.18
2019-06-26T06:29:13.310Z,12.07
2019-06-26T06:30:47.625Z,9.63
2019-06-26T06:32:22.574Z,11.83
2019-06-26T06:33:56.950Z,11.57
2019-06-26T06:35:31.865Z,10.53
2019-06-26T06:37:06.193Z,9.98
2019-06-26T06:38:41.097Z,9.40
2019-06-26T06:40:15.753Z,9.25
2019-06-26T06:41:50.671Z,12.37
2019-06-26T06:43:24.992Z,9.05
2019-06-26T06:44:59.991Z,9.23
2019-06-26T06:46:34.359Z,9.68
2019-06-26T06:48:10.007Z,9.80
2019-06-26T06:49:44.666Z,10.00
2019-06-26T06:51:19.580Z,9.60
2019-06-26T06:52:53.961Z,10.48
2019-06-26T06:54:28.902Z,9.63
2019-06-26T06:56:03.234Z,15.28
2019-06-26T06:57:38.286Z,8.03
2019-06-26T06:59:12.610Z,8.20
2019-06-26T07:00:47.584Z,14.18
2019-06-26T07:02:21.932Z,10.25
2019-06-26T07:03:56.890Z,8.48
2019-06-26T07:05:31.201Z,8.70
2019-06-26T07:07:06.122Z,14.90
2019-06-26T07:08:40.468Z,8.18
2019-06-26T07:10:15.404Z,10.40
2019-06-26T07:11:50.121Z,9.05
2019-06-26T07:13:24.774Z,9.55
2019-06-26T07:14:59.105Z,8.05
2019-06-26T07:16:34.071Z,8.58
2019-06-26T07:18:08.373Z,8.98
2019-06-26T07:19:43.298Z,11.88
2019-06-26T07:21:17.622Z,7.67
2019-06-26T07:22:52.564Z,9.75
2019-06-26T07:24:26.888Z,7.42
2019-06-26T07:26:02.216Z,9.13
2019-06-26T07:27:37.605Z,7.75
2019-06-26T07:29:12.552Z,6.03
2019-06-26T07:30:46.924Z,6.80
2019-06-26T07:32:21.833Z,6.15
2019-06-26T07:33:56.159Z,8.15
2019-06-26T07:35:31.074Z,5.67
2019-06-26T07:37:05.502Z,9.88
2019-06-26T07:38:40.419Z,9.23
2019-06-26T07:40:17.053Z,7.30
2019-06-26T07:41:51.999Z,6.33
2019-06-26T07:43:26.327Z,8.35
2019-06-26T07:45:01.249Z,7.10
2019-06-26T07:46:35.631Z,7.42
2019-06-26T07:48:10.613Z,7.67
2019-06-26T07:49:45.276Z,5.90
2019-06-26T07:51:20.238Z,8.58
2019-06-26T07:52:54.570Z,6.95
2019-06-26T07:54:29.478Z,6.20
2019-06-26T07:56:03.913Z,9.10
2019-06-26T07:57:38.862Z,7.42
2019-06-26T07:59:13.183Z,10.65
2019-06-26T08:00:48.100Z,7.12
2019-06-26T08:02:22.440Z,9.50
2019-06-26T08:03:57.419Z,8.80
2019-06-26T08:05:31.721Z,8.90
2019-06-26T08:07:06.639Z,8.58
2019-06-26T08:08:40.967Z,8.55
2019-06-26T08:10:16.324Z,9.23
2019-06-26T08:11:50.648Z,11.65
2019-06-26T08:13:25.558Z,7.62
2019-06-26T08:14:59.940Z,9.85
2019-06-26T08:16:34.924Z,11.60
2019-06-26T08:18:09.255Z,9.78
2019-06-26T08:19:44.184Z,9.58
2019-06-26T08:21:18.516Z,9.03
2019-06-26T08:22:53.535Z,7.58
2019-06-26T08:24:27.868Z,8.78
2019-06-26T08:26:02.834Z,9.00
2019-06-26T08:27:37.575Z,6.85
2019-06-26T08:29:12.887Z,11.50
2019-06-26T08:30:47.218Z,7.70
2019-06-26T08:32:25.096Z,12.35
2019-06-26T08:33:58.238Z,8.93
2019-06-26T08:35:33.159Z,8.65
2019-06-26T08:37:07.495Z,10.25
2019-06-26T08:38:42.443Z,7.85
2019-06-26T08:40:17.429Z,8.95
2019-06-26T08:41:52.349Z,9.30
2019-06-26T08:43:26.660Z,8.15
2019-06-26T08:45:02.114Z,8.10
2019-06-26T08:46:36.423Z,9.45
2019-06-26T08:48:22.600Z,9.38
2019-06-26T08:49:47.632Z,10.53
2019-06-26T08:51:22.967Z,9.30
2019-06-26T08:52:57.317Z,13.75
2019-06-26T08:54:32.221Z,10.35
2019-06-26T08:56:06.523Z,7.62
2019-06-26T08:57:41.474Z,9.15
2019-06-26T08:59:15.814Z,11.90
2019-06-26T09:00:50.756Z,10.30
2019-06-26T09:02:25.095Z,9.73
2019-06-26T09:04:00.056Z,10.63
2019-06-26T09:05:47.616Z,10.53
2019-06-26T09:07:11.031Z,8.48
2019-06-26T09:08:45.373Z,9.23
2019-06-26T09:10:20.381Z,8.95
2019-06-26T09:11:54.713Z,6.10
2019-06-26T09:13:29.408Z,9.75
2019-06-26T09:15:04.835Z,6.35
2019-06-26T09:16:39.831Z,8.75
2019-06-26T09:18:14.208Z,8.55
2019-06-26T09:19:49.121Z,7.42
2019-06-26T09:21:23.458Z,7.97
2019-06-26T09:22:58.407Z,9.08
2019-06-26T09:24:32.750Z,7.25
2019-06-26T09:26:07.736Z,11.97
2019-06-26T09:27:42.068Z,13.88
2019-06-26T09:29:17.016Z,9.70
2019-06-26T09:30:51.345Z,9.65
2019-06-26T09:32:26.263Z,7.22
2019-06-26T09:34:00.588Z,11.68
2019-06-26T09:35:35.560Z,7.30
2019-06-26T09:37:09.915Z,7.12
2019-06-26T09:38:44.818Z,13.00
2019-06-26T09:40:19.297Z,7.55
2019-06-26T09:41:54.209Z,10.63
2019-06-26T09:43:28.533Z,10.35
2019-06-26T09:45:03.554Z,8.18
2019-06-26T09:46:37.903Z,9.93
2019-06-26T09:48:12.893Z,6.65
2019-06-26T09:49:47.219Z,8.30
2019-06-26T09:51:22.451Z,19.85
2019-06-26T09:52:56.875Z,12.03
2019-06-26T09:54:31.810Z,10.13
2019-06-26T09:56:06.229Z,8.90
2019-06-26T09:57:41.139Z,11.85
2019-06-26T09:59:15.511Z,13.72
2019-06-26T10:00:50.429Z,9.48
2019-06-26T10:02:25.156Z,7.22
2019-06-26T10:04:00.067Z,14.10
2019-06-26T10:05:34.435Z,8.35
2019-06-26T10:07:09.370Z,18.10
2019-06-26T10:08:43.754Z,8.65
2019-06-26T10:10:18.947Z,7.00
2019-06-26T10:11:53.319Z,8.08
2019-06-26T10:13:28.230Z,9.90
2019-06-26T10:15:02.897Z,7.40
2019-06-26T10:16:37.815Z,11.88
2019-06-26T10:18:12.177Z,10.28
2019-06-26T10:19:47.145Z,9.28
2019-06-26T10:21:23.696Z,14.73
2019-06-26T10:22:58.145Z,9.53
2019-06-26T10:24:32.475Z,8.78
2019-06-26T10:26:07.495Z,9.38
2019-06-26T10:27:41.850Z,7.65
2019-06-26T10:29:16.780Z,8.50
2019-06-26T10:30:51.119Z,8.60
2019-06-26T10:32:26.034Z,7.60
2019-06-26T10:34:00.356Z,8.78
2019-06-26T10:35:35.306Z,10.10
2019-06-26T10:37:09.630Z,9.48
2019-06-26T10:38:44.581Z,11.10
2019-06-26T10:40:18.946Z,9.28
2019-06-26T10:41:55.209Z,8.48
2019-06-26T10:43:29.707Z,11.00
2019-06-26T10:45:06.519Z,9.28
2019-06-26T10:46:40.887Z,8.70
2019-06-26T10:48:15.820Z,8.73
2019-06-26T10:49:50.142Z,9.53
2019-06-26T10:51:25.422Z,10.40
2019-06-26T10:52:59.751Z,11.05
2019-06-26T10:54:34.707Z,11.28
2019-06-26T10:56:09.022Z,9.20
2019-06-26T10:57:44.296Z,8.75
2019-06-26T10:59:18.774Z,10.05
2019-06-26T11:00:53.728Z,12.78
2019-06-26T11:02:28.068Z,13.93
2019-06-26T11:04:02.924Z,16.17
2019-06-26T11:05:37.266Z,9.18
2019-06-26T11:07:12.227Z,9.60
2019-06-26T11:08:46.523Z,12.20
2019-06-26T11:10:23.407Z,10.23
2019-06-26T11:11:57.809Z,11.28
2019-06-26T11:13:32.775Z,11.15
2019-06-26T11:15:08.419Z,9.65
2019-06-26T11:16:43.710Z,11.97
2019-06-26T11:18:18.277Z,13.78
2019-06-26T11:19:55.585Z,9.20
2019-06-26T11:21:29.496Z,9.95
2019-06-26T11:23:04.841Z,13.83
2019-06-26T11:24:40.327Z,9.60
2019-06-26T11:26:15.234Z,11.12
2019-06-26T11:27:49.556Z,11.15
2019-06-26T11:29:24.754Z,10.70
2019-06-26T11:30:59.150Z,10.03
2019-06-26T11:32:34.099Z,9.80
2019-06-26T11:34:08.426Z,10.20
2019-06-26T11:35:43.527Z,9.75
2019-06-26T11:37:17.881Z,10.20
2019-06-26T11:38:52.797Z,9.43
2019-06-26T11:40:27.317Z,12.03
2019-06-26T11:42:02.515Z,10.90
2019-06-26T11:43:36.875Z,12.53
2019-06-26T11:45:12.268Z,11.40
2019-06-26T11:46:46.712Z,11.05
2019-06-26T11:48:21.910Z,8.55
2019-06-26T11:50:00.327Z,12.55
2019-06-26T11:51:32.866Z,10.30
2019-06-26T11:53:07.277Z,10.90
2019-06-26T11:54:42.529Z,9.13
2019-06-26T11:56:16.960Z,10.43
2019-06-26T11:57:51.983Z,7.95
2019-06-26T11:59:27.269Z,9.98
2019-06-26T12:01:04.093Z,12.45
2019-06-26T12:02:38.498Z,10.68
2019-06-26T12:04:13.163Z,10.50
2019-06-26T12:05:47.488Z,10.63
2019-06-26T12:07:22.954Z,8.78
2019-06-26T12:08:57.275Z,9.60
2019-06-26T12:10:31.897Z,8.93
2019-06-26T12:12:06.226Z,10.08
2019-06-26T12:13:41.453Z,8.38
2019-06-26T12:15:17.481Z,8.90
2019-06-26T12:16:52.417Z,9.60
2019-06-26T12:18:26.735Z,8.80
2019-06-26T12:20:17.149Z,8.95
2019-06-26T12:21:37.821Z,9.78
2019-06-26T12:23:12.735Z,8.35
2019-06-26T12:24:47.059Z,10.25
2019-06-26T12:26:22.376Z,9.75
2019-06-26T12:27:56.696Z,16.05
2019-06-26T12:29:33.041Z,8.70
2019-06-26T12:31:09.087Z,7.97
2019-06-26T12:33:01.558Z,10.28
2019-06-26T12:34:20.455Z,13.75
2019-06-26T12:35:55.361Z,10.32
2019-06-26T12:37:37.681Z,8.53
2019-06-26T12:39:10.073Z,11.97
2019-06-26T12:40:44.403Z,11.25
2019-06-26T12:42:19.388Z,9.90
2019-06-26T12:43:53.702Z,8.10
2019-06-26T12:45:28.779Z,11.08
2019-06-26T12:47:03.117Z,13.85
2019-06-26T12:48:39.574Z,10.05
2019-06-26T12:50:14.683Z,8.35
2019-06-26T12:51:49.985Z,7.80
2019-06-26T12:53:24.703Z,10.53
2019-06-26T12:54:59.614Z,10.80
2019-06-26T12:56:33.951Z,10.30
2019-06-26T12:58:14.762Z,10.88
2019-06-26T12:59:56.577Z,9.00
2019-06-26T13:01:24.917Z,9.98
2019-06-26T13:02:57.937Z,9.58
2019-06-26T13:04:33.276Z,8.88
2019-06-26T13:06:07.603Z,11.20
2019-06-26T13:07:43.312Z,11.30
2019-06-26T13:09:17.619Z,8.58
2019-06-26T13:10:52.872Z,9.65
2019-06-26T13:12:27.179Z,9.23
2019-06-26T13:14:03.265Z,12.95
2019-06-26T13:15:37.805Z,10.80
2019-06-26T13:17:12.837Z,8.95
2019-06-26T13:18:47.242Z,10.05
2019-06-26T13:20:22.149Z,10.65
2019-06-26T13:21:56.471Z,11.00
2019-06-26T13:23:31.801Z,9.75
2019-06-26T13:25:07.696Z,10.65
2019-06-26T13:26:42.638Z,10.90
2019-06-26T13:28:16.972Z,9.73
2019-06-26T13:29:52.100Z,9.48
2019-06-26T13:31:26.434Z,10.38
2019-06-26T13:33:01.127Z,12.55
2019-06-26T13:34:35.453Z,6.97
2019-06-26T13:36:10.658Z,8.70
2019-06-26T13:37:44.983Z,12.43
2019-06-26T13:39:20.098Z,7.92
2019-06-26T13:40:54.433Z,8.85
2019-06-26T13:42:29.603Z,7.58
2019-06-26T13:44:03.935Z,7.45
2019-06-26T13:45:38.878Z,8.65
2019-06-26T13:47:13.199Z,10.13
2019-06-26T13:48:48.325Z,8.95
2019-06-26T13:50:22.648Z,13.22
2019-06-26T13:51:57.595Z,6.87
2019-06-26T13:53:31.972Z,7.62
2019-06-26T13:55:07.813Z,8.85
2019-06-26T13:56:42.142Z,8.83
2019-06-26T13:58:17.101Z,9.78
2019-06-26T13:59:51.540Z,9.60
2019-06-26T14:01:26.801Z,12.55
2019-06-26T14:03:01.245Z,7.70
2019-06-26T14:04:36.127Z,12.98
2019-06-26T14:06:10.459Z,21.52
2019-06-26T14:07:45.536Z,11.12
2019-06-26T14:09:19.866Z,11.28
2019-06-26T14:10:54.846Z,6.87
2019-06-26T14:12:29.181Z,7.53
2019-06-26T14:14:04.368Z,13.75
2019-06-26T14:15:38.757Z,10.55
2019-06-26T14:17:13.666Z,7.80
2019-06-26T14:18:47.993Z,8.80
2019-06-26T14:20:23.479Z,7.33
2019-06-26T14:21:57.770Z,9.53
2019-06-26T14:23:32.683Z,12.50
2019-06-26T14:25:08.447Z,14.20
2019-06-26T14:26:43.556Z,12.37
2019-06-26T14:28:19.707Z,14.65
2019-06-26T14:29:54.518Z,17.40
2019-06-26T14:31:53.244Z,11.08
2019-06-26T14:33:28.157Z,5.70
2019-06-26T14:35:05.021Z,7.50
2019-06-26T14:36:41.198Z,5.92
2019-06-26T14:38:15.683Z,4.62
2019-06-26T14:39:50.590Z,5.33
2019-06-26T14:41:25.282Z,9.88
2019-06-26T14:43:00.195Z,7.70
2019-06-26T14:44:34.769Z,4.03
2019-06-26T14:46:10.131Z,6.37
2019-06-26T14:47:44.457Z,5.28
2019-06-26T14:49:19.391Z,9.48
2019-06-26T14:50:53.842Z,6.78
2019-06-26T14:52:29.801Z,10.53
2019-06-26T14:54:04.228Z,11.65
2019-06-26T14:55:39.140Z,13.45
2019-06-26T14:57:13.780Z,7.42
2019-06-26T14:58:48.740Z,7.12
2019-06-26T15:00:23.173Z,9.35
2019-06-26T15:01:58.976Z,7.12
2019-06-26T15:03:33.422Z,8.98
2019-06-26T15:05:09.369Z,7.40
2019-06-26T15:06:43.690Z,8.98
2019-06-26T15:08:18.602Z,6.62
2019-06-26T15:09:53.168Z,7.87
2019-06-26T15:11:28.120Z,7.15
2019-06-26T15:13:02.529Z,8.38
2019-06-26T15:14:37.471Z,4.80
2019-06-26T15:16:12.154Z,7.30
2019-06-26T15:17:47.061Z,5.17
2019-06-26T15:19:21.395Z,5.33
2019-06-26T15:20:56.339Z,5.55
2019-06-26T15:22:32.311Z,3.90
2019-06-26T15:24:07.237Z,4.10
2019-06-26T15:25:41.560Z,4.30
2019-06-26T15:27:16.874Z,7.97
2019-06-26T15:28:51.450Z,6.60
2019-06-26T15:30:27.090Z,6.03
2019-06-26T15:32:01.436Z,5.53
2019-06-26T15:33:36.850Z,5.78
2019-06-26T15:35:12.079Z,5.92
2019-06-26T15:36:47.060Z,6.28
2019-06-26T15:38:21.499Z,6.05
2019-06-26T15:39:56.480Z,6.87
2019-06-26T15:41:31.163Z,4.25
2019-06-26T15:43:05.920Z,5.20
2019-06-26T15:44:40.294Z,4.30
2019-06-26T15:46:15.209Z,8.03
2019-06-26T15:47:49.744Z,5.20
2019-06-26T15:49:24.661Z,5.85
2019-06-26T15:50:59.040Z,5.15
2019-06-26T15:52:33.962Z,5.85
2019-06-26T15:54:08.516Z,4.67
2019-06-26T15:55:43.421Z,5.58
2019-06-26T15:57:17.817Z,7.55
2019-06-26T15:58:53.123Z,5.03
2019-06-26T16:00:27.709Z,6.22
2019-06-26T16:02:02.626Z,8.08
2019-06-26T16:03:36.998Z,8.33
2019-06-26T16:05:12.554Z,7.20
2019-06-26T16:06:47.150Z,8.03
2019-06-26T16:08:22.089Z,5.85
2019-06-26T16:09:56.409Z,5.95
2019-06-26T16:11:31.392Z,5.05
2019-06-26T16:13:05.994Z,7.10
2019-06-26T16:14:41.197Z,6.12
2019-06-26T16:16:15.596Z,5.37
2019-06-26T16:17:57.686Z,5.12
2019-06-26T16:19:32.849Z,6.58
2019-06-26T16:21:08.707Z,5.35
2019-06-26T16:22:43.605Z,6.15
2019-06-26T16:24:17.974Z,5.20
2019-06-26T16:25:53.278Z,5.42
2019-06-26T16:27:27.602Z,5.42
2019-06-26T16:29:02.514Z,5.85
2019-06-26T16:30:36.947Z,6.33
2019-06-26T16:32:12.366Z,4.65
2019-06-26T16:33:46.686Z,4.72
2019-06-26T16:35:21.338Z,5.72
2019-06-26T16:36:55.699Z,5.45
2019-06-26T16:38:31.142Z,6.40
2019-06-26T16:40:08.988Z,8.00
2019-06-26T16:41:44.202Z,6.10
2019-06-26T16:43:18.579Z,5.95
2019-06-26T16:44:53.709Z,8.55
2019-06-26T16:46:28.034Z,6.55
2019-06-26T16:48:02.947Z,5.55
2019-06-26T16:49:37.310Z,7.33
2019-06-26T16:51:12.797Z,6.70
2019-06-26T16:52:49.546Z,7.10
2019-06-26T16:54:26.630Z,7.78
2019-06-26T16:56:01.003Z,6.28
2019-06-26T16:57:37.238Z,5.92
2019-06-26T16:59:11.579Z,5.78
2019-06-26T17:00:46.540Z,6.95
2019-06-26T17:02:20.873Z,6.17
2019-06-26T17:03:56.309Z,7.03
2019-06-26T17:05:30.632Z,6.28
2019-06-26T17:07:05.689Z,7.55
2019-06-26T17:08:40.099Z,5.72
2019-06-26T17:10:15.571Z,6.50
2019-06-26T17:11:49.899Z,6.97
2019-06-26T17:13:24.881Z,4.70
2019-06-26T17:14:59.208Z,6.60
2019-06-26T17:16:34.351Z,7.95
2019-06-26T17:18:08.685Z,8.95
2019-06-26T17:19:43.612Z,6.47
2019-06-26T17:21:17.940Z,8.33
2019-06-26T17:23:05.094Z,6.47
2019-06-26T17:24:30.019Z,6.25
2019-06-26T17:26:06.359Z,8.33
2019-06-26T17:27:40.699Z,5.40
2019-06-26T17:29:16.129Z,10.20
2019-06-26T17:30:52.844Z,6.40
2019-06-26T17:32:27.092Z,7.75
2019-06-26T17:34:01.410Z,5.55
2019-06-26T17:35:36.652Z,5.05
2019-06-26T17:37:10.975Z,6.08
2019-06-26T17:38:45.930Z,7.28
2019-06-26T17:40:21.046Z,6.53
2019-06-26T17:41:56.350Z,7.00
2019-06-26T17:43:32.346Z,7.97
2019-06-26T17:45:08.266Z,6.12
2019-06-26T17:46:42.590Z,6.15
2019-06-26T17:48:17.789Z,5.83
2019-06-26T17:49:52.314Z,5.65
2019-06-26T17:51:27.402Z,4.90
2019-06-26T17:53:01.726Z,4.62
2019-06-26T17:54:36.914Z,5.40
2019-06-26T17:56:11.243Z,8.30
2019-06-26T17:57:47.629Z,7.15
2019-06-26T17:59:22.374Z,6.15
2019-06-26T18:00:57.501Z,6.03
2019-06-26T18:02:31.827Z,6.40
2019-06-26T18:04:06.819Z,6.58
2019-06-26T18:05:42.405Z,10.05
2019-06-26T18:07:17.173Z,7.00
2019-06-26T18:08:51.580Z,7.33
2019-06-26T18:10:26.533Z,6.20
2019-06-26T18:12:00.875Z,7.42
2019-06-26T18:13:36.092Z,8.25
2019-06-26T18:15:10.627Z,11.75
2019-06-26T18:16:45.667Z,15.23
2019-06-26T18:18:20.091Z,16.93
2019-06-26T18:19:55.429Z,14.47
2019-06-26T18:21:29.846Z,13.53
2019-06-26T18:23:07.847Z,10.03
2019-06-26T18:24:41.863Z,10.48
2019-06-26T18:26:22.371Z,15.13
2019-06-26T18:27:56.716Z,7.80
2019-06-26T18:29:31.688Z,7.60
2019-06-26T18:31:06.012Z,7.80
2019-06-26T18:32:41.231Z,6.60
2019-06-26T18:34:15.630Z,8.55
2019-06-26T18:35:50.576Z,8.38
2019-06-26T18:37:24.904Z,7.70
2019-06-26T18:39:00.317Z,11.35
2019-06-26T18:40:34.644Z,7.47
2019-06-26T18:42:09.594Z,7.90
2019-06-26T18:43:43.967Z,8.63
2019-06-26T18:45:19.388Z,7.00
2019-06-26T18:46:53.720Z,8.83
2019-06-26T18:48:28.986Z,8.30
2019-06-26T18:50:04.705Z,10.63
2019-06-26T18:51:39.772Z,9.65
2019-06-26T18:53:15.289Z,9.55
2019-06-26T18:54:51.159Z,8.73
2019-06-26T18:56:25.487Z,7.50
2019-06-26T18:58:00.880Z,19.17
2019-06-26T18:59:36.835Z,8.35
2019-06-26T19:01:11.551Z,11.90
2019-06-26T19:02:45.881Z,13.00
2019-06-26T19:04:21.691Z,18.20
2019-06-26T19:05:56.059Z,8.90
2019-06-26T19:07:31.067Z,9.35
2019-06-26T19:09:06.841Z,10.20
2019-06-26T19:10:42.350Z,10.75
2019-06-26T19:12:16.702Z,12.90
2019-06-26T19:13:51.626Z,10.25
2019-06-26T19:15:26.055Z,10.38
2019-06-26T19:17:01.500Z,13.00
2019-06-26T19:18:35.840Z,12.68
2019-06-26T19:20:11.419Z,16.35
2019-06-26T19:21:45.766Z,12.55
2019-06-26T19:23:20.939Z,9.65
2019-06-26T19:24:55.322Z,11.15
2019-06-26T19:26:30.282Z,9.53
2019-06-26T19:28:04.611Z,14.23
2019-06-26T19:29:39.978Z,14.73
2019-06-26T19:31:14.380Z,10.00
2019-06-26T19:32:49.304Z,13.68
2019-06-26T19:34:23.638Z,12.47
2019-06-26T19:36:00.502Z,22.93
2019-06-26T19:37:35.051Z,22.27
2019-06-26T19:39:09.737Z,19.60
2019-06-26T19:40:44.108Z,18.67
2019-06-26T19:42:19.456Z,38.38
2019-06-26T19:43:53.887Z,42.75
2019-06-26T19:45:28.912Z,47.35
2019-06-26T19:47:03.401Z,41.15
2019-06-26T19:48:38.366Z,35.65
2019-06-26T19:50:15.952Z,33.73
2019-06-26T19:51:52.376Z,23.77
2019-06-26T19:53:26.788Z,26.75
2019-06-26T19:55:01.947Z,27.02
2019-06-26T19:56:36.299Z,22.93
2019-06-26T19:58:10.946Z,27.22
2019-06-26T19:59:45.399Z,29.45
2019-06-26T20:01:20.418Z,25.92
2019-06-26T20:02:56.114Z,15.28
2019-06-26T20:04:31.037Z,25.43
2019-06-26T20:06:05.603Z,26.17
2019-06-26T20:07:40.845Z,32.30
2019-06-26T20:09:16.649Z,25.32
2019-06-26T20:10:51.619Z,15.13
2019-06-26T20:12:25.959Z,11.93
2019-06-26T20:14:02.595Z,14.23
2019-06-26T20:15:36.926Z,13.28
2019-06-26T20:17:13.351Z,14.25
2019-06-26T20:18:47.697Z,20.32
2019-06-26T20:20:22.908Z,23.42
2019-06-26T20:21:57.224Z,18.42
2019-06-26T20:23:32.323Z,25.55
2019-06-26T20:25:09.328Z,15.15
2019-06-26T20:26:44.525Z,19.17
2019-06-26T20:28:18.901Z,18.85
2019-06-26T20:29:54.438Z,18.52
2019-06-26T20:31:28.793Z,25.40
2019-06-26T20:33:04.162Z,19.48
2019-06-26T20:34:39.890Z,21.93
2019-06-26T20:36:14.928Z,15.43
2019-06-26T20:37:49.286Z,19.25
2019-06-26T20:39:24.481Z,17.95
2019-06-26T20:40:58.860Z,26.97
2019-06-26T20:42:33.966Z,23.00
2019-06-26T20:44:08.322Z,23.95
2019-06-26T20:45:43.770Z,18.35
2019-06-26T20:47:18.122Z,15.30
2019-06-26T20:48:53.049Z,17.15
2019-06-26T20:50:27.435Z,12.33
2019-06-26T20:52:03.890Z,17.80
2019-06-26T20:53:38.274Z,15.05
2019-06-26T20:55:13.304Z,15.78
2019-06-26T20:56:49.141Z,17.55
2019-06-26T20:58:24.521Z,29.37
2019-06-26T20:59:58.934Z,17.25
2019-06-26T21:01:33.861Z,20.48
2019-06-26T21:03:08.214Z,18.52
2019-06-26T21:04:44.484Z,17.52
2019-06-26T21:06:18.925Z,20.02
2019-06-26T21:07:53.842Z,11.97
2019-06-26T21:09:28.179Z,14.25
2019-06-26T21:11:03.325Z,22.15
2019-06-26T21:12:37.708Z,17.80
2019-06-26T21:14:12.646Z,21.52
2019-06-26T21:15:47.036Z,19.32
2019-06-26T21:17:25.590Z,21.45
2019-06-26T21:18:58.551Z,14.70
2019-06-26T21:20:34.655Z,16.37
2019-06-26T21:22:09.199Z,18.35
2019-06-26T21:23:45.824Z,15.78
2019-06-26T21:25:20.280Z,16.15
2019-06-26T21:26:55.276Z,13.98
2019-06-26T21:28:29.670Z,20.05
2019-06-26T21:30:05.773Z,19.65
2019-06-26T21:31:40.124Z,23.80
2019-06-26T21:33:15.161Z,17.65